createdAt,value
2023-07-23T00:02:47.661Z,77.5
2023-07-23T00:22:47.619Z,75.9
2023-07-23T00:42:47.609Z,75.3
2023-07-23T01:02:47.574Z,81.7
2023-07-23T01:22:47.549Z,79.0
2023-07-23T01:42:47.633Z,78.3
2023-07-23T02:02:47.478Z,81.0
2023-07-23T02:22:47.453Z,78.3
2023-07-23T02:42:47.420Z,80.4
2023-07-23T03:02:47.411Z,84.8
2023-07-23T03:22:47.358Z,82.1
2023-07-23T03:42:47.339Z,80.2
2023-07-23T04:02:47.302Z,81.5
2023-07-23T04:22:47.280Z,81.9
2023-07-23T04:42:47.255Z,79.6
2023-07-23T05:02:47.202Z,84.0
2023-07-23T05:22:47.175Z,81.8
2023-07-23T05:42:47.150Z,82.2
2023-07-23T06:02:47.189Z,79.4
2023-07-23T06:22:47.098Z,77.0
2023-07-23T06:42:47.097Z,73.1
2023-07-23T07:02:47.030Z,71.1
2023-07-23T07:22:46.997Z,66.5
2023-07-23T07:42:46.951Z,65.5
2023-07-23T08:02:46.956Z,62.3
2023-07-23T08:22:46.894Z,53.9
2023-07-23T08:42:46.876Z,52.1
2023-07-23T09:02:46.847Z,48.7
2023-07-23T09:22:46.875Z,47.6
2023-07-23T09:42:46.766Z,49.0
2023-07-23T10:02:46.752Z,47.7
2023-07-23T10:42:46.694Z,43.0
2023-07-23T11:02:46.643Z,43.7
2023-07-23T11:22:46.616Z,39.9
2023-07-23T11:42:46.584Z,41.4
2023-07-23T12:02:46.574Z,40.4
2023-07-23T12:22:46.527Z,41.9
2023-07-23T12:42:46.479Z,42.6
2023-07-23T13:02:46.495Z,40.9
2023-07-23T13:22:46.457Z,39.2
2023-07-23T13:42:46.383Z,38.8
2023-07-23T14:02:46.372Z,39.7
2023-07-23T14:22:46.377Z,42.9
2023-07-23T14:42:46.303Z,42.3
2023-07-23T15:02:46.355Z,43.6
2023-07-23T15:22:46.234Z,41.9
2023-07-23T15:42:46.241Z,46.8
2023-07-23T16:02:46.153Z,47.0
2023-07-23T16:22:46.128Z,48.7
2023-07-23T16:42:46.099Z,52.4
2023-07-23T17:02:46.062Z,48.9
2023-07-23T17:22:46.043Z,52.5
2023-07-23T17:42:46.059Z,53.8
2023-07-23T18:02:45.972Z,59.3
2023-07-23T18:22:45.936Z,71.6
2023-07-23T18:42:45.911Z,60.4
2023-07-23T19:02:45.879Z,74.2
2023-07-23T19:22:45.835Z,67.8
2023-07-23T19:42:45.824Z,75.0
2023-07-23T20:02:45.786Z,71.6
2023-07-23T20:22:46.001Z,71.8
2023-07-23T20:42:45.799Z,70.2
2023-07-23T21:02:45.745Z,72.0
2023-07-23T21:22:45.650Z,70.6
2023-07-23T21:42:45.632Z,67.2
2023-07-23T22:02:45.588Z,74.7
2023-07-23T22:22:45.645Z,73.1
2023-07-23T22:42:45.556Z,68.6
2023-07-23T23:02:45.492Z,72.0
2023-07-23T23:22:45.454Z,72.9
2023-07-23T23:42:45.453Z,74.6
